createdAt,value
2023-05-25T00:02:15.989Z,13.10
2023-05-25T00:04:42.949Z,13.10
2023-05-25T00:07:10.319Z,13.10
2023-05-25T00:09:36.995Z,13.10
2023-05-25T00:12:03.739Z,13.10
2023-05-25T00:14:31.134Z,13.20
2023-05-25T00:16:58.399Z,13.20
2023-05-25T00:19:25.237Z,13.20
2023-05-25T00:21:52.162Z,13.30
2023-05-25T00:24:18.987Z,13.40
2023-05-25T00:26:45.731Z,13.40
2023-05-25T00:29:13.337Z,13.40
2023-05-25T00:31:40.018Z,13.40
2023-05-25T00:34:06.743Z,13.40
2023-05-25T00:36:33.402Z,13.30
2023-05-25T00:39:00.073Z,13.20
2023-05-25T00:41:27.682Z,13.20
2023-05-25T00:43:54.377Z,13.20
2023-05-25T00:46:22.459Z,13.20
2023-05-25T00:48:51.353Z,13.20
2023-05-25T00:51:18.051Z,13.10
2023-05-25T00:53:44.768Z,13.10
2023-05-25T00:56:15.620Z,13.10
2023-05-25T00:58:42.927Z,13.10
2023-05-25T01:01:12.407Z,13.20
2023-05-25T01:03:40.170Z,13.20
2023-05-25T01:06:13.183Z,13.20
2023-05-25T01:08:41.955Z,13.20
2023-05-25T01:11:10.042Z,13.20
2023-05-25T01:13:38.275Z,13.10
2023-05-25T01:16:06.551Z,13.10
2023-05-25T01:18:33.768Z,13.20
2023-05-25T01:21:18.156Z,13.20
2023-05-25T01:23:52.911Z,13.20
2023-05-25T01:26:20.535Z,13.20
2023-05-25T01:28:50.675Z,13.10
2023-05-25T01:31:18.635Z,13.20
2023-05-25T01:33:45.417Z,13.20
2023-05-25T01:36:12.062Z,13.10
2023-05-25T01:38:39.088Z,13.10
2023-05-25T01:41:05.794Z,13.10
2023-05-25T01:43:32.487Z,13.20
2023-05-25T01:46:05.236Z,13.30
2023-05-25T01:48:43.006Z,13.30
2023-05-25T01:51:32.156Z,13.40
2023-05-25T01:54:01.584Z,13.40
2023-05-25T01:56:29.119Z,13.40
2023-05-25T01:58:56.533Z,13.40
2023-05-25T02:01:23.555Z,13.40
2023-05-25T02:03:50.495Z,13.40
2023-05-25T02:06:17.225Z,13.30
2023-05-25T02:08:46.924Z,13.30
2023-05-25T02:11:14.610Z,13.40
2023-05-25T02:13:41.346Z,13.40
2023-05-25T02:16:08.213Z,13.50
2023-05-25T02:18:34.935Z,13.50
2023-05-25T02:21:01.680Z,13.50
2023-05-25T02:23:28.450Z,13.40
2023-05-25T02:25:56.072Z,13.30
2023-05-25T02:28:22.749Z,13.40
2023-05-25T02:30:49.401Z,13.30
2023-05-25T02:33:16.073Z,13.30
2023-05-25T02:35:43.011Z,13.30
2023-05-25T02:38:09.979Z,13.40
2023-05-25T02:40:36.703Z,13.30
2023-05-25T02:43:03.397Z,13.20
2023-05-25T02:45:30.052Z,13.20
2023-05-25T02:47:56.737Z,13.20
2023-05-25T02:50:23.438Z,13.20
2023-05-25T02:52:50.082Z,13.30
2023-05-25T02:55:18.870Z,13.30
2023-05-25T02:57:45.630Z,13.40
2023-05-25T03:00:12.521Z,13.40
2023-05-25T03:02:39.287Z,13.50
2023-05-25T03:05:06.563Z,13.50
2023-05-25T03:07:33.320Z,13.50
2023-05-25T03:10:00.028Z,13.50
2023-05-25T03:12:26.790Z,13.60
2023-05-25T03:14:53.515Z,13.60
2023-05-25T03:17:20.310Z,13.60
2023-05-25T03:19:47.040Z,13.60
2023-05-25T03:22:13.693Z,13.60
2023-05-25T03:24:41.824Z,13.50
2023-05-25T03:27:09.002Z,13.50
2023-05-25T03:29:35.885Z,13.50
2023-05-25T03:32:02.886Z,13.60
2023-05-25T03:34:29.946Z,13.60
2023-05-25T03:36:56.638Z,13.60
2023-05-25T03:39:23.392Z,13.60
2023-05-25T03:41:51.103Z,13.60
2023-05-25T03:44:17.808Z,13.60
2023-05-25T03:46:44.570Z,13.60
2023-05-25T03:49:13.937Z,13.60
2023-05-25T03:51:44.235Z,13.60
2023-05-25T03:54:11.139Z,13.50
2023-05-25T03:56:37.811Z,13.60
2023-05-25T03:59:04.505Z,13.60
2023-05-25T04:01:31.194Z,13.70
2023-05-25T04:03:58.006Z,13.70
2023-05-25T04:06:29.991Z,13.70
2023-05-25T04:08:58.029Z,13.70
2023-05-25T04:11:25.691Z,13.80
2023-05-25T04:13:52.374Z,13.70
2023-05-25T04:16:19.145Z,13.70
2023-05-25T04:18:45.810Z,13.70
2023-05-25T04:21:12.447Z,13.80
2023-05-25T04:23:39.121Z,13.80
2023-05-25T04:26:06.133Z,13.80
2023-05-25T04:28:32.903Z,13.80
2023-05-25T04:30:59.577Z,13.80
2023-05-25T04:33:29.755Z,13.80
2023-05-25T04:35:58.670Z,13.80
2023-05-25T04:38:25.455Z,13.80
2023-05-25T04:40:53.918Z,13.80
2023-05-25T04:43:20.615Z,13.80
2023-05-25T04:45:47.607Z,13.90
2023-05-25T04:48:14.497Z,13.90
2023-05-25T04:50:41.221Z,13.90
2023-05-25T04:53:07.874Z,13.90
2023-05-25T04:55:34.666Z,13.90
2023-05-25T04:58:01.363Z,13.90
2023-05-25T05:00:31.334Z,14.00
2023-05-25T05:02:58.814Z,14.00
2023-05-25T05:05:25.561Z,14.10
2023-05-25T05:07:53.877Z,14.10
2023-05-25T05:10:20.617Z,14.20
2023-05-25T05:12:47.347Z,14.30
2023-05-25T05:15:13.996Z,14.40
2023-05-25T05:17:40.804Z,14.50
2023-05-25T05:20:08.034Z,14.50
2023-05-25T05:22:34.824Z,14.50
2023-05-25T05:25:02.151Z,14.40
2023-05-25T05:27:28.845Z,14.40
2023-05-25T05:29:55.522Z,14.40
2023-05-25T05:32:22.196Z,14.30
2023-05-25T05:34:48.913Z,14.20
2023-05-25T05:37:15.611Z,14.20
2023-05-25T05:39:42.322Z,14.20
2023-05-25T05:42:09.579Z,14.30
2023-05-25T05:44:36.282Z,14.30
2023-05-25T05:47:03.291Z,14.40
2023-05-25T05:49:30.821Z,14.40
2023-05-25T05:51:57.686Z,14.60
2023-05-25T05:54:24.383Z,14.70
2023-05-25T05:56:51.257Z,14.90
2023-05-25T05:59:18.157Z,15.00
2023-05-25T06:01:44.814Z,15.10
2023-05-25T06:04:11.576Z,15.30
2023-05-25T06:06:40.525Z,15.30
2023-05-25T06:09:07.187Z,15.40
2023-05-25T06:11:36.046Z,15.40
2023-05-25T06:14:03.169Z,15.40
2023-05-25T06:16:29.997Z,15.50
2023-05-25T06:18:56.688Z,15.60
2023-05-25T06:21:23.310Z,15.60
2023-05-25T06:23:50.010Z,15.60
2023-05-25T06:26:16.663Z,15.60
2023-05-25T06:28:43.371Z,15.50
2023-05-25T06:31:10.012Z,15.60
2023-05-25T06:33:36.703Z,15.70
2023-05-25T06:36:04.914Z,15.60
2023-05-25T06:38:32.225Z,15.70
2023-05-25T06:41:03.212Z,15.70
2023-05-25T06:43:29.945Z,15.70
2023-05-25T06:45:56.653Z,15.70
2023-05-25T06:48:23.405Z,15.80
2023-05-25T06:50:50.096Z,15.80
2023-05-25T06:53:17.408Z,15.70
2023-05-25T06:55:44.568Z,15.70
2023-05-25T06:58:11.745Z,15.70
2023-05-25T07:00:38.477Z,15.70
2023-05-25T07:03:05.206Z,15.80
2023-05-25T07:05:31.885Z,15.80
2023-05-25T07:07:58.500Z,15.90
2023-05-25T07:10:25.224Z,15.90
2023-05-25T07:12:52.440Z,15.90
2023-05-25T07:15:21.573Z,15.80
2023-05-25T07:17:48.461Z,15.70
2023-05-25T07:20:15.231Z,15.80
2023-05-25T07:22:42.273Z,15.90
2023-05-25T07:25:09.347Z,15.80
2023-05-25T07:27:36.196Z,15.90
2023-05-25T07:30:02.943Z,16.00
2023-05-25T07:32:29.696Z,15.90
2023-05-25T07:34:56.704Z,16.00
2023-05-25T07:37:23.378Z,16.00
2023-05-25T07:39:50.588Z,16.00
2023-05-25T07:42:21.034Z,16.00
2023-05-25T07:44:48.757Z,16.00
2023-05-25T07:47:15.610Z,16.00
2023-05-25T07:49:42.399Z,16.10
2023-05-25T07:52:09.189Z,16.20
2023-05-25T07:54:40.025Z,16.30
2023-05-25T07:57:07.756Z,16.40
2023-05-25T07:59:34.546Z,16.50
2023-05-25T08:02:01.268Z,16.60
2023-05-25T08:04:28.074Z,16.70
2023-05-25T08:06:54.930Z,16.90
2023-05-25T08:09:21.580Z,17.00
2023-05-25T08:11:48.300Z,17.10
2023-05-25T08:14:14.933Z,17.10
2023-05-25T08:16:41.671Z,17.30
2023-05-25T08:19:08.351Z,17.40
2023-05-25T08:21:35.210Z,17.40
2023-05-25T08:24:04.246Z,17.50
2023-05-25T08:26:45.458Z,17.70
2023-05-25T08:29:18.297Z,17.80
2023-05-25T08:31:49.506Z,17.70
2023-05-25T08:34:16.900Z,17.60
2023-05-25T08:36:44.733Z,17.50
2023-05-25T08:39:11.674Z,17.60
2023-05-25T08:41:41.782Z,17.80
2023-05-25T08:44:08.907Z,18.10
2023-05-25T08:46:35.723Z,18.30
2023-05-25T08:49:09.324Z,18.40
2023-05-25T08:51:37.871Z,18.50
2023-05-25T08:54:09.028Z,18.50
2023-05-25T08:56:39.869Z,18.50
2023-05-25T08:59:12.160Z,18.30
2023-05-25T09:01:42.655Z,18.10
2023-05-25T09:04:09.432Z,18.20
2023-05-25T09:06:36.855Z,18.20
2023-05-25T09:09:04.501Z,18.20
2023-05-25T09:11:38.530Z,18.00
2023-05-25T09:14:07.550Z,18.20
2023-05-25T09:16:34.331Z,18.40
2023-05-25T09:19:01.966Z,18.70
2023-05-25T09:21:28.967Z,18.70
2023-05-25T09:23:55.815Z,18.80
2023-05-25T09:26:22.507Z,18.80
2023-05-25T09:28:54.944Z,19.00
2023-05-25T09:31:23.289Z,19.30
2023-05-25T09:33:50.202Z,19.60
2023-05-25T09:36:17.770Z,19.80
2023-05-25T09:38:45.703Z,19.60
2023-05-25T09:41:12.616Z,19.60
2023-05-25T09:43:46.658Z,19.40
2023-05-25T09:46:21.341Z,19.10
2023-05-25T09:48:48.603Z,18.90
2023-05-25T09:51:15.614Z,19.00
2023-05-25T09:53:42.646Z,18.90
2023-05-25T09:56:11.396Z,18.90
2023-05-25T09:58:38.132Z,19.00
2023-05-25T10:01:05.202Z,19.20
2023-05-25T10:03:32.840Z,19.30
2023-05-25T10:05:59.762Z,19.30
2023-05-25T10:08:29.606Z,19.10
2023-05-25T10:10:56.338Z,19.20
2023-05-25T10:13:23.309Z,19.20
2023-05-25T10:15:52.939Z,19.10
2023-05-25T10:18:22.752Z,19.20
2023-05-25T10:20:51.106Z,19.10
2023-05-25T10:23:18.985Z,19.10
2023-05-25T10:25:47.897Z,19.20
2023-05-25T10:28:16.727Z,19.30
2023-05-25T10:30:43.865Z,19.50
2023-05-25T10:33:10.902Z,19.70
2023-05-25T10:35:46.632Z,19.70
2023-05-25T10:38:19.313Z,19.80
2023-05-25T10:40:53.023Z,20.00
2023-05-25T10:43:20.201Z,19.90
2023-05-25T10:45:47.598Z,19.80
2023-05-25T10:48:15.464Z,19.80
2023-05-25T10:50:42.155Z,19.90
2023-05-25T10:53:12.429Z,19.90
2023-05-25T10:55:54.387Z,20.00
2023-05-25T10:58:21.935Z,20.10
2023-05-25T11:01:02.160Z,20.30
2023-05-25T11:03:44.373Z,20.30
2023-05-25T11:06:11.872Z,20.20
2023-05-25T11:08:53.805Z,20.10
2023-05-25T11:11:21.027Z,19.80
2023-05-25T11:13:49.374Z,20.00
2023-05-25T11:16:24.755Z,20.50
2023-05-25T11:18:51.935Z,20.60
2023-05-25T11:21:23.164Z,20.60
2023-05-25T11:24:11.359Z,20.60
2023-05-25T11:26:51.773Z,20.60
2023-05-25T11:29:20.084Z,20.40
2023-05-25T11:31:51.887Z,20.40
2023-05-25T11:34:21.751Z,20.60
2023-05-25T11:36:48.408Z,20.80
2023-05-25T11:39:22.494Z,20.80
2023-05-25T11:41:52.277Z,20.80
2023-05-25T11:44:26.191Z,20.90
2023-05-25T11:46:53.348Z,21.10
2023-05-25T11:49:21.303Z,21.30
2023-05-25T11:51:48.029Z,21.00
2023-05-25T11:54:21.592Z,20.80
2023-05-25T11:56:48.259Z,20.80
2023-05-25T11:59:14.936Z,20.50
2023-05-25T12:01:41.606Z,20.50
2023-05-25T12:04:09.496Z,20.70
2023-05-25T12:06:40.311Z,20.70
2023-05-25T12:09:11.890Z,20.70
2023-05-25T12:11:38.918Z,20.70
2023-05-25T12:14:06.282Z,20.70
2023-05-25T12:16:38.938Z,20.60
2023-05-25T12:19:06.637Z,20.70
2023-05-25T12:21:33.430Z,20.70
2023-05-25T12:24:00.682Z,20.70
2023-05-25T12:26:27.726Z,20.80
2023-05-25T12:28:58.055Z,20.90
2023-05-25T12:31:35.222Z,20.90
2023-05-25T12:34:06.071Z,20.90
2023-05-25T12:36:45.428Z,21.00
2023-05-25T12:39:13.554Z,20.80
2023-05-25T12:41:54.778Z,20.70
2023-05-25T12:44:22.330Z,20.50
2023-05-25T12:46:50.502Z,20.20
2023-05-25T12:49:30.890Z,20.20
2023-05-25T12:51:58.115Z,20.40
2023-05-25T12:54:38.249Z,20.50
2023-05-25T12:57:06.693Z,20.40
2023-05-25T12:59:34.349Z,20.10
2023-05-25T13:02:01.372Z,19.90
2023-05-25T13:04:28.203Z,19.90
2023-05-25T13:06:55.665Z,20.20
2023-05-25T13:09:28.981Z,20.40
2023-05-25T13:11:56.732Z,20.70
2023-05-25T13:14:24.326Z,20.90
2023-05-25T13:16:51.608Z,20.90
2023-05-25T13:19:19.036Z,20.90
2023-05-25T13:21:45.932Z,20.80
2023-05-25T13:24:12.839Z,20.90
2023-05-25T13:26:39.535Z,21.10
2023-05-25T13:29:06.704Z,21.00
2023-05-25T13:31:33.424Z,21.10
2023-05-25T13:34:00.241Z,21.10
2023-05-25T13:36:26.905Z,21.30
2023-05-25T13:38:53.883Z,21.40
2023-05-25T13:41:20.627Z,21.60
2023-05-25T13:43:47.718Z,21.80
2023-05-25T13:46:25.825Z,21.80
2023-05-25T13:48:59.943Z,21.80
2023-05-25T13:51:26.760Z,21.70
2023-05-25T13:53:53.606Z,21.70
2023-05-25T13:56:20.379Z,21.70
2023-05-25T13:58:47.090Z,21.80
2023-05-25T14:01:13.826Z,21.80
2023-05-25T14:03:40.695Z,21.90
2023-05-25T14:06:07.468Z,22.10
2023-05-25T14:08:34.191Z,22.00
2023-05-25T14:11:00.929Z,21.90
2023-05-25T14:13:27.664Z,21.90
2023-05-25T14:15:54.418Z,22.00
2023-05-25T14:18:21.546Z,21.80
2023-05-25T14:20:48.434Z,21.80
2023-05-25T14:23:18.161Z,21.60
2023-05-25T14:25:45.993Z,21.60
2023-05-25T14:28:12.919Z,21.90
2023-05-25T14:30:39.651Z,22.00
2023-05-25T14:33:06.383Z,22.20
2023-05-25T14:35:33.263Z,22.30
2023-05-25T14:37:59.967Z,22.20
2023-05-25T14:40:26.765Z,21.90
2023-05-25T14:42:55.507Z,22.00
2023-05-25T14:45:22.442Z,22.10
2023-05-25T14:47:50.592Z,22.40
2023-05-25T14:50:18.686Z,22.50
2023-05-25T14:52:46.490Z,22.60
2023-05-25T14:55:13.184Z,22.50
2023-05-25T14:57:40.127Z,22.70
2023-05-25T15:00:07.194Z,22.80
2023-05-25T15:02:33.973Z,22.70
2023-05-25T15:05:00.921Z,22.70
2023-05-25T15:07:27.709Z,22.80
2023-05-25T15:09:54.460Z,23.00
2023-05-25T15:12:21.244Z,23.20
2023-05-25T15:14:47.919Z,23.00
2023-05-25T15:17:14.610Z,22.70
2023-05-25T15:19:41.277Z,22.60
2023-05-25T15:22:07.963Z,22.50
2023-05-25T15:24:34.803Z,22.40
2023-05-25T15:27:01.653Z,22.40
2023-05-25T15:29:28.353Z,22.60
2023-05-25T15:31:55.115Z,22.80
2023-05-25T15:34:21.825Z,23.10
2023-05-25T15:36:48.522Z,23.10
2023-05-25T15:39:15.568Z,23.10
2023-05-25T15:41:42.367Z,22.90
2023-05-25T15:44:12.508Z,22.70
2023-05-25T15:46:40.213Z,22.90
2023-05-25T15:49:11.239Z,22.60
2023-05-25T15:51:42.664Z,22.30
2023-05-25T15:54:12.745Z,22.20
2023-05-25T15:56:41.011Z,22.10
2023-05-25T15:59:08.086Z,22.10
2023-05-25T16:01:36.742Z,22.10
2023-05-25T16:04:06.656Z,22.00
2023-05-25T16:06:33.352Z,21.90
2023-05-25T16:09:00.028Z,22.00
2023-05-25T16:11:31.722Z,22.00
2023-05-25T16:13:59.543Z,21.90
2023-05-25T16:16:26.271Z,21.80
2023-05-25T16:18:52.958Z,21.70
2023-05-25T16:21:19.700Z,21.60
2023-05-25T16:23:46.375Z,21.60
2023-05-25T16:26:13.020Z,21.50
2023-05-25T16:28:39.749Z,21.50
2023-05-25T16:31:06.925Z,21.30
2023-05-25T16:33:34.108Z,21.30
2023-05-25T16:36:01.068Z,21.30
2023-05-25T16:38:27.819Z,21.20
2023-05-25T16:40:54.496Z,21.20
2023-05-25T16:43:23.241Z,21.10
2023-05-25T16:45:49.931Z,21.00
2023-05-25T16:48:16.631Z,21.00
2023-05-25T16:50:43.306Z,21.30
2023-05-25T16:53:10.041Z,21.10
2023-05-25T16:55:36.726Z,21.00
2023-05-25T16:58:03.564Z,21.00
2023-05-25T17:00:30.441Z,20.90
2023-05-25T17:02:57.247Z,20.90
2023-05-25T17:05:23.963Z,21.10
2023-05-25T17:07:50.851Z,21.30
2023-05-25T17:10:17.663Z,22.20
2023-05-25T17:12:44.291Z,22.20
2023-05-25T17:15:13.690Z,21.90
2023-05-25T17:17:41.290Z,21.70
2023-05-25T17:20:08.109Z,21.60
2023-05-25T17:22:34.813Z,21.70
2023-05-25T17:25:01.487Z,21.70
2023-05-25T17:27:28.134Z,21.80
2023-05-25T17:29:54.868Z,21.80
2023-05-25T17:32:22.063Z,21.80
2023-05-25T17:34:48.902Z,21.80
2023-05-25T17:37:15.546Z,21.80
2023-05-25T17:39:42.704Z,22.20
2023-05-25T17:42:09.388Z,23.10
2023-05-25T17:44:40.144Z,23.90
2023-05-25T17:47:09.177Z,24.40
2023-05-25T17:49:37.576Z,24.70
2023-05-25T17:52:04.298Z,24.90
2023-05-25T17:54:31.016Z,25.00
2023-05-25T17:56:57.727Z,25.00
2023-05-25T17:59:24.399Z,25.00
2023-05-25T18:01:51.261Z,24.80
2023-05-25T18:04:20.054Z,24.40
2023-05-25T18:06:47.308Z,24.20
2023-05-25T18:09:14.103Z,24.10
2023-05-25T18:11:41.117Z,23.90
2023-05-25T18:14:07.875Z,23.70
2023-05-25T18:16:39.609Z,23.00
2023-05-25T18:19:06.777Z,22.30
2023-05-25T18:21:38.098Z,21.70
2023-05-25T18:24:05.200Z,21.50
2023-05-25T18:26:31.857Z,21.60
2023-05-25T18:28:58.571Z,21.50
2023-05-25T18:31:25.665Z,21.00
2023-05-25T18:33:52.489Z,20.50
2023-05-25T18:36:19.148Z,20.20
2023-05-25T18:38:45.828Z,20.00
2023-05-25T18:41:12.515Z,19.80
2023-05-25T18:43:39.156Z,19.60
2023-05-25T18:46:06.419Z,19.40
2023-05-25T18:48:33.195Z,19.30
2023-05-25T18:50:59.912Z,19.10
2023-05-25T18:53:26.581Z,18.90
2023-05-25T18:55:53.289Z,18.80
2023-05-25T18:58:20.029Z,18.70
2023-05-25T19:00:46.718Z,18.50
2023-05-25T19:03:13.536Z,18.40
2023-05-25T19:05:40.489Z,18.30
2023-05-25T19:08:07.140Z,18.10
2023-05-25T19:10:33.862Z,18.00
2023-05-25T19:13:00.563Z,17.80
2023-05-25T19:15:27.224Z,17.70
2023-05-25T19:17:53.932Z,17.60
2023-05-25T19:20:20.814Z,17.60
2023-05-25T19:22:47.690Z,17.50
2023-05-25T19:25:14.392Z,17.50
2023-05-25T19:27:41.071Z,17.40
2023-05-25T19:30:07.944Z,17.40
2023-05-25T19:32:34.706Z,17.30
2023-05-25T19:35:01.443Z,17.30
2023-05-25T19:37:28.203Z,17.20
2023-05-25T19:39:54.874Z,17.20
2023-05-25T19:42:21.650Z,17.10
2023-05-25T19:44:48.381Z,17.00
2023-05-25T19:47:15.132Z,16.90
2023-05-25T19:49:41.915Z,16.90
2023-05-25T19:52:08.726Z,16.80
2023-05-25T19:54:35.460Z,16.70
2023-05-25T19:57:03.054Z,16.70
2023-05-25T19:59:31.115Z,16.60
2023-05-25T20:01:58.150Z,16.60
2023-05-25T20:04:25.159Z,16.50
2023-05-25T20:06:52.353Z,16.40
2023-05-25T20:09:19.104Z,16.40
2023-05-25T20:11:45.874Z,16.30
2023-05-25T20:14:12.562Z,16.30
2023-05-25T20:16:39.269Z,16.30
2023-05-25T20:19:07.626Z,16.20
2023-05-25T20:21:35.598Z,16.10
2023-05-25T20:24:02.529Z,16.10
2023-05-25T20:26:29.225Z,16.00
2023-05-25T20:28:56.225Z,15.90
2023-05-25T20:31:24.167Z,15.80
2023-05-25T20:33:51.217Z,15.80
2023-05-25T20:36:17.999Z,15.80
2023-05-25T20:38:47.618Z,15.80
2023-05-25T20:41:14.350Z,15.80
2023-05-25T20:43:41.188Z,15.80
2023-05-25T20:46:09.655Z,15.70
2023-05-25T20:48:36.954Z,15.70
2023-05-25T20:51:03.681Z,15.70
2023-05-25T20:53:30.573Z,15.60
2023-05-25T20:55:58.114Z,15.60
2023-05-25T20:58:24.763Z,15.50
2023-05-25T21:00:51.479Z,15.50
2023-05-25T21:03:18.287Z,15.50
2023-05-25T21:05:46.012Z,15.40
2023-05-25T21:08:12.941Z,15.40
2023-05-25T21:10:39.607Z,15.30
2023-05-25T21:13:06.594Z,15.20
2023-05-25T21:15:33.239Z,15.00
2023-05-25T21:17:59.930Z,14.80
2023-05-25T21:20:27.211Z,14.60
2023-05-25T21:22:54.038Z,14.60
2023-05-25T21:25:20.856Z,14.70
2023-05-25T21:27:47.531Z,14.80
2023-05-25T21:30:14.668Z,14.80
2023-05-25T21:32:41.498Z,14.80
2023-05-25T21:35:08.439Z,14.80
2023-05-25T21:37:35.251Z,14.80
2023-05-25T21:40:01.941Z,14.80
2023-05-25T21:42:28.603Z,14.80
2023-05-25T21:44:55.459Z,14.80
2023-05-25T21:47:22.353Z,14.80
2023-05-25T21:49:49.228Z,14.80
2023-05-25T21:52:15.901Z,14.70
2023-05-25T21:54:42.556Z,14.70
2023-05-25T21:57:09.282Z,14.60
2023-05-25T21:59:35.953Z,14.60
2023-05-25T22:02:02.668Z,14.60
2023-05-25T22:04:29.437Z,14.60
2023-05-25T22:06:56.937Z,14.50
2023-05-25T22:09:23.647Z,14.50
2023-05-25T22:11:50.369Z,14.40
2023-05-25T22:14:17.085Z,14.40
2023-05-25T22:16:43.785Z,14.30
2023-05-25T22:19:10.681Z,14.30
2023-05-25T22:21:37.902Z,14.30
2023-05-25T22:24:04.716Z,14.20
2023-05-25T22:26:31.543Z,14.20
2023-05-25T22:28:58.331Z,14.20
2023-05-25T22:31:26.346Z,14.20
2023-05-25T22:33:53.111Z,14.10
2023-05-25T22:36:19.761Z,14.10
2023-05-25T22:38:46.785Z,14.10
2023-05-25T22:41:13.416Z,14.10
2023-05-25T22:43:40.083Z,14.00
2023-05-25T22:46:06.884Z,14.00
2023-05-25T22:48:33.682Z,13.90
2023-05-25T22:51:00.526Z,13.90
2023-05-25T22:53:27.191Z,13.90
2023-05-25T22:55:53.907Z,13.80
2023-05-25T22:58:20.587Z,13.80
2023-05-25T23:00:47.287Z,13.80
2023-05-25T23:03:14.179Z,13.80
2023-05-25T23:05:41.078Z,13.80
2023-05-25T23:08:08.243Z,13.80
2023-05-25T23:10:34.974Z,13.70
2023-05-25T23:13:02.450Z,13.70
2023-05-25T23:15:30.757Z,13.70
2023-05-25T23:17:57.507Z,13.60
2023-05-25T23:20:24.393Z,13.60
2023-05-25T23:22:51.126Z,13.60
2023-05-25T23:25:17.886Z,13.60
2023-05-25T23:27:44.533Z,13.60
2023-05-25T23:30:11.599Z,13.60
2023-05-25T23:32:38.249Z,13.50
2023-05-25T23:35:05.481Z,13.50
2023-05-25T23:37:32.109Z,13.50
2023-05-25T23:39:58.760Z,13.40
2023-05-25T23:42:27.297Z,13.40
2023-05-25T23:44:53.948Z,13.40
2023-05-25T23:47:20.591Z,13.40
2023-05-25T23:49:47.221Z,13.40
2023-05-25T23:52:13.833Z,13.40
2023-05-25T23:54:40.509Z,13.40
2023-05-25T23:57:07.175Z,13.40
2023-05-25T23:59:33.816Z,13.40
